Terminal Aerodrome Forecast
Issued by NWS

Home | Current Version | Previous Version | Text Only | Print | Product List | Glossary On
Versions: 1 2 3 4 5 6 7 8 9 10 11 12 13 14 15
000
FTAK31 PAJN 111700
TAFAGY
TAF
PAGY 111737Z 1118/1218 21005KT P6SM VCSH SCT050 OVC080
     FM112100 21010KT P6SM -RA BKN035 OVC050
     FM120200 21008KT 6SM -RA BR BKN025 OVC035
     FM120600 20005KT 5SM -RA BR OVC015
      AMD LTD TO CLD VIS AND WIND=

USA.gov is the U.S. government's official web portal to all federal, state and local government web resources and services.